sensor_id;sensor_type;location;lat;lon;timestamp;pressure;altitude;pressure_sealevel;temperature
62930;BMP280;49036;42.782;23.108;2024-01-30T00:01:04;94254.38;;;-4.99
62930;BMP280;49036;42.782;23.108;2024-01-30T00:03:30;94292.63;;;-4.91
62930;BMP280;49036;42.782;23.108;2024-01-30T00:05:55;94336.44;;;-4.87
62930;BMP280;49036;42.782;23.108;2024-01-30T00:08:21;94388.59;;;-4.87
62930;BMP280;49036;42.782;23.108;2024-01-30T00:10:46;94420.91;;;-4.98
62930;BMP280;49036;42.782;23.108;2024-01-30T00:13:12;94415.25;;;-5.15
62930;BMP280;49036;42.782;23.108;2024-01-30T00:15:39;94427.81;;;-5.27
62930;BMP280;49036;42.782;23.108;2024-01-30T00:18:04;94418.84;;;-5.47
62930;BMP280;49036;42.782;23.108;2024-01-30T00:20:30;94384.56;;;-5.56
62930;BMP280;49036;42.782;23.108;2024-01-30T00:22:55;94357.59;;;-5.65
62930;BMP280;49036;42.782;23.108;2024-01-30T00:25:21;94339.41;;;-5.94
62930;BMP280;49036;42.782;23.108;2024-01-30T00:27:46;94311.31;;;-5.97
62930;BMP280;49036;42.782;23.108;2024-01-30T00:30:12;94281.34;;;-5.99
62930;BMP280;49036;42.782;23.108;2024-01-30T00:32:37;94254.81;;;-6.00
62930;BMP280;49036;42.782;23.108;2024-01-30T00:35:03;94241.78;;;-6.02
62930;BMP280;49036;42.782;23.108;2024-01-30T00:37:29;94226.00;;;-6.18
62930;BMP280;49036;42.782;23.108;2024-01-30T00:39:54;94216.81;;;-6.26
62930;BMP280;49036;42.782;23.108;2024-01-30T00:42:20;94219.66;;;-6.30
62930;BMP280;49036;42.782;23.108;2024-01-30T00:44:46;94224.69;;;-6.38
62930;BMP280;49036;42.782;23.108;2024-01-30T00:47:11;94198.50;;;-6.46
62930;BMP280;49036;42.782;23.108;2024-01-30T00:49:37;94208.47;;;-6.53
62930;BMP280;49036;42.782;23.108;2024-01-30T00:52:02;94190.69;;;-6.59
62930;BMP280;49036;42.782;23.108;2024-01-30T00:54:28;94178.31;;;-6.51
62930;BMP280;49036;42.782;23.108;2024-01-30T00:56:53;94158.41;;;-6.54
62930;BMP280;49036;42.782;23.108;2024-01-30T00:59:19;94157.56;;;-6.60
62930;BMP280;49036;42.782;23.108;2024-01-30T01:01:44;94154.19;;;-6.69
62930;BMP280;49036;42.782;23.108;2024-01-30T01:04:10;94146.56;;;-6.71
62930;BMP280;49036;42.782;23.108;2024-01-30T01:06:35;94134.09;;;-6.68
62930;BMP280;49036;42.782;23.108;2024-01-30T01:09:00;94111.22;;;-6.73
62930;BMP280;49036;42.782;23.108;2024-01-30T01:11:26;94070.34;;;-6.51
62930;BMP280;49036;42.782;23.108;2024-01-30T01:13:51;94035.53;;;-6.34
62930;BMP280;49036;42.782;23.108;2024-01-30T01:16:17;94029.63;;;-6.18
62930;BMP280;49036;42.782;23.108;2024-01-30T01:18:42;94038.06;;;-5.95
62930;BMP280;49036;42.782;23.108;2024-01-30T01:21:07;94104.31;;;-5.80
62930;BMP280;49036;42.782;23.108;2024-01-30T01:23:33;94198.88;;;-5.80
62930;BMP280;49036;42.782;23.108;2024-01-30T01:25:58;94283.69;;;-5.62
62930;BMP280;49036;42.782;23.108;2024-01-30T01:28:25;94373.63;;;-5.32
62930;BMP280;49036;42.782;23.108;2024-01-30T01:30:50;94453.38;;;-5.13
62930;BMP280;49036;42.782;23.108;2024-01-30T01:33:16;94496.41;;;-5.15
62930;BMP280;49036;42.782;23.108;2024-01-30T01:35:42;94515.34;;;-5.15
62930;BMP280;49036;42.782;23.108;2024-01-30T01:38:08;94551.38;;;-4.94
62930;BMP280;49036;42.782;23.108;2024-01-30T01:40:33;94600.53;;;-4.81
62930;BMP280;49036;42.782;23.108;2024-01-30T01:43:03;94661.88;;;-4.78
62930;BMP280;49036;42.782;23.108;2024-01-30T01:45:28;94685.56;;;-4.87
62930;BMP280;49036;42.782;23.108;2024-01-30T01:47:54;94719.16;;;-4.94
62930;BMP280;49036;42.782;23.108;2024-01-30T01:50:20;94720.56;;;-5.08
62930;BMP280;49036;42.782;23.108;2024-01-30T01:52:50;94726.75;;;-5.07
62930;BMP280;49036;42.782;23.108;2024-01-30T01:55:17;94732.72;;;-5.03
62930;BMP280;49036;42.782;23.108;2024-01-30T01:57:47;94758.84;;;-4.91
62930;BMP280;49036;42.782;23.108;2024-01-30T02:00:13;94762.69;;;-4.83
62930;BMP280;49036;42.782;23.108;2024-01-30T02:02:39;94773.50;;;-4.74
62930;BMP280;49036;42.782;23.108;2024-01-30T02:05:05;94797.25;;;-4.54
62930;BMP280;49036;42.782;23.108;2024-01-30T02:07:31;94828.44;;;-4.34
62930;BMP280;49036;42.782;23.108;2024-01-30T02:09:56;94853.63;;;-4.19
62930;BMP280;49036;42.782;23.108;2024-01-30T02:12:22;94838.56;;;-4.20
62930;BMP280;49036;42.782;23.108;2024-01-30T02:14:48;94799.88;;;-4.21
62930;BMP280;49036;42.782;23.108;2024-01-30T02:17:15;94771.00;;;-4.24
62930;BMP280;49036;42.782;23.108;2024-01-30T02:19:41;94756.22;;;-4.23
62930;BMP280;49036;42.782;23.108;2024-01-30T02:22:07;94750.25;;;-4.27
62930;BMP280;49036;42.782;23.108;2024-01-30T02:24:33;94726.22;;;-4.34
62930;BMP280;49036;42.782;23.108;2024-01-30T02:26:58;94722.47;;;-4.36
62930;BMP280;49036;42.782;23.108;2024-01-30T02:29:24;94739.19;;;-4.38
62930;BMP280;49036;42.782;23.108;2024-01-30T02:31:49;94737.50;;;-4.35
62930;BMP280;49036;42.782;23.108;2024-01-30T02:34:15;94723.72;;;-4.23
62930;BMP280;49036;42.782;23.108;2024-01-30T02:36:43;94730.22;;;-4.29
62930;BMP280;49036;42.782;23.108;2024-01-30T02:39:09;94742.19;;;-4.36
62930;BMP280;49036;42.782;23.108;2024-01-30T02:41:35;94742.00;;;-4.32
62930;BMP280;49036;42.782;23.108;2024-01-30T02:44:01;94735.09;;;-4.33
62930;BMP280;49036;42.782;23.108;2024-01-30T02:46:26;94755.09;;;-4.31
62930;BMP280;49036;42.782;23.108;2024-01-30T02:48:52;94779.38;;;-4.36
62930;BMP280;49036;42.782;23.108;2024-01-30T02:51:17;94795.81;;;-4.40
62930;BMP280;49036;42.782;23.108;2024-01-30T02:53:43;94773.47;;;-4.50
62930;BMP280;49036;42.782;23.108;2024-01-30T02:56:08;94761.72;;;-4.47
62930;BMP280;49036;42.782;23.108;2024-01-30T02:58:38;94803.00;;;-4.37
62930;BMP280;49036;42.782;23.108;2024-01-30T03:01:04;94818.88;;;-4.44
62930;BMP280;49036;42.782;23.108;2024-01-30T03:03:29;94833.44;;;-4.42
62930;BMP280;49036;42.782;23.108;2024-01-30T03:05:55;94832.88;;;-4.46
62930;BMP280;49036;42.782;23.108;2024-01-30T03:08:20;94845.22;;;-4.45
62930;BMP280;49036;42.782;23.108;2024-01-30T03:10:46;94856.03;;;-4.45
62930;BMP280;49036;42.782;23.108;2024-01-30T03:13:11;94882.31;;;-4.36
62930;BMP280;49036;42.782;23.108;2024-01-30T03:15:37;94885.59;;;-4.32
62930;BMP280;49036;42.782;23.108;2024-01-30T03:18:02;94913.09;;;-4.25
62930;BMP280;49036;42.782;23.108;2024-01-30T03:20:31;94927.25;;;-4.21
62930;BMP280;49036;42.782;23.108;2024-01-30T03:22:57;94922.28;;;-4.22
62930;BMP280;49036;42.782;23.108;2024-01-30T03:25:22;94929.94;;;-4.21
62930;BMP280;49036;42.782;23.108;2024-01-30T03:27:48;94919.28;;;-4.24
62930;BMP280;49036;42.782;23.108;2024-01-30T03:30:14;94906.03;;;-4.22
62930;BMP280;49036;42.782;23.108;2024-01-30T03:32:39;94914.72;;;-4.18
62930;BMP280;49036;42.782;23.108;2024-01-30T03:35:05;94906.16;;;-4.26
62930;BMP280;49036;42.782;23.108;2024-01-30T03:37:31;94878.50;;;-4.30
62930;BMP280;49036;42.782;23.108;2024-01-30T03:39:56;94893.84;;;-4.27
62930;BMP280;49036;42.782;23.108;2024-01-30T03:42:22;94912.06;;;-4.27
62930;BMP280;49036;42.782;23.108;2024-01-30T03:44:48;94928.31;;;-4.27
62930;BMP280;49036;42.782;23.108;2024-01-30T03:47:13;94916.78;;;-4.37
62930;BMP280;49036;42.782;23.108;2024-01-30T03:49:39;94912.56;;;-4.38
62930;BMP280;49036;42.782;23.108;2024-01-30T03:52:05;94901.63;;;-4.43
62930;BMP280;49036;42.782;23.108;2024-01-30T03:54:30;94912.56;;;-4.38
62930;BMP280;49036;42.782;23.108;2024-01-30T03:56:56;94916.16;;;-4.32
62930;BMP280;49036;42.782;23.108;2024-01-30T03:59:21;94923.34;;;-4.29
62930;BMP280;49036;42.782;23.108;2024-01-30T04:01:50;94912.97;;;-4.30
62930;BMP280;49036;42.782;23.108;2024-01-30T04:04:17;94915.78;;;-4.25
62930;BMP280;49036;42.782;23.108;2024-01-30T04:06:42;94929.88;;;-4.11
62930;BMP280;49036;42.782;23.108;2024-01-30T04:09:08;94921.63;;;-4.17
62930;BMP280;49036;42.782;23.108;2024-01-30T04:11:33;94911.72;;;-4.20
62930;BMP280;49036;42.782;23.108;2024-01-30T04:13:59;94913.22;;;-4.19
62930;BMP280;49036;42.782;23.108;2024-01-30T04:16:24;94925.41;;;-4.14
62930;BMP280;49036;42.782;23.108;2024-01-30T04:18:51;94928.47;;;-4.31
62930;BMP280;49036;42.782;23.108;2024-01-30T04:21:16;94922.50;;;-4.35
62930;BMP280;49036;42.782;23.108;2024-01-30T04:23:42;94916.22;;;-4.50
62930;BMP280;49036;42.782;23.108;2024-01-30T04:26:07;94903.66;;;-4.62
62930;BMP280;49036;42.782;23.108;2024-01-30T04:28:33;94899.34;;;-4.69
62930;BMP280;49036;42.782;23.108;2024-01-30T04:30:58;94876.50;;;-4.77
62930;BMP280;49036;42.782;23.108;2024-01-30T04:33:24;94880.91;;;-4.89
62930;BMP280;49036;42.782;23.108;2024-01-30T04:35:49;94880.28;;;-5.17
62930;BMP280;49036;42.782;23.108;2024-01-30T04:38:15;94874.75;;;-5.32
62930;BMP280;49036;42.782;23.108;2024-01-30T04:40:40;94870.25;;;-5.53
62930;BMP280;49036;42.782;23.108;2024-01-30T04:43:06;94861.13;;;-5.83
62930;BMP280;49036;42.782;23.108;2024-01-30T04:45:31;94849.41;;;-5.98
62930;BMP280;49036;42.782;23.108;2024-01-30T04:47:57;94813.56;;;-6.26
62930;BMP280;49036;42.782;23.108;2024-01-30T04:50:23;94799.25;;;-6.45
62930;BMP280;49036;42.782;23.108;2024-01-30T04:52:49;94785.31;;;-6.53
62930;BMP280;49036;42.782;23.108;2024-01-30T04:55:14;94749.00;;;-6.80
62930;BMP280;49036;42.782;23.108;2024-01-30T04:57:40;94695.94;;;-6.73
62930;BMP280;49036;42.782;23.108;2024-01-30T05:00:06;94677.78;;;-6.82
62930;BMP280;49036;42.782;23.108;2024-01-30T05:02:31;94644.06;;;-6.96
62930;BMP280;49036;42.782;23.108;2024-01-30T05:04:57;94631.16;;;-7.01
62930;BMP280;49036;42.782;23.108;2024-01-30T05:07:24;94624.97;;;-7.20
62930;BMP280;49036;42.782;23.108;2024-01-30T05:09:50;94603.72;;;-7.27
62930;BMP280;49036;42.782;23.108;2024-01-30T05:12:15;94589.91;;;-7.38
62930;BMP280;49036;42.782;23.108;2024-01-30T05:14:40;94572.50;;;-7.65
62930;BMP280;49036;42.782;23.108;2024-01-30T05:17:06;94551.75;;;-7.55
62930;BMP280;49036;42.782;23.108;2024-01-30T05:19:33;94510.38;;;-7.70
62930;BMP280;49036;42.782;23.108;2024-01-30T05:21:58;94488.56;;;-7.72
62930;BMP280;49036;42.782;23.108;2024-01-30T05:24:24;94459.22;;;-7.70
62930;BMP280;49036;42.782;23.108;2024-01-30T05:26:49;94430.34;;;-7.70
62930;BMP280;49036;42.782;23.108;2024-01-30T05:29:16;94402.94;;;-7.68
62930;BMP280;49036;42.782;23.108;2024-01-30T05:31:41;94390.06;;;-7.73
62930;BMP280;49036;42.782;23.108;2024-01-30T05:34:07;94355.03;;;-7.73
62930;BMP280;49036;42.782;23.108;2024-01-30T05:36:33;94335.00;;;-7.72
62930;BMP280;49036;42.782;23.108;2024-01-30T05:38:59;94344.91;;;-7.69
62930;BMP280;49036;42.782;23.108;2024-01-30T05:41:24;94329.94;;;-7.80
62930;BMP280;49036;42.782;23.108;2024-01-30T05:43:50;94335.19;;;-7.85
62930;BMP280;49036;42.782;23.108;2024-01-30T05:46:15;94303.44;;;-7.72
62930;BMP280;49036;42.782;23.108;2024-01-30T05:48:40;94270.22;;;-7.69
62930;BMP280;49036;42.782;23.108;2024-01-30T05:51:07;94265.53;;;-7.59
62930;BMP280;49036;42.782;23.108;2024-01-30T05:53:33;94247.75;;;-7.66
62930;BMP280;49036;42.782;23.108;2024-01-30T05:56:02;94231.97;;;-7.49
62930;BMP280;49036;42.782;23.108;2024-01-30T05:58:28;94210.47;;;-7.25
62930;BMP280;49036;42.782;23.108;2024-01-30T06:00:54;94218.25;;;-7.27
62930;BMP280;49036;42.782;23.108;2024-01-30T06:03:19;94238.16;;;-7.24
62930;BMP280;49036;42.782;23.108;2024-01-30T06:05:45;94216.59;;;-7.00
62930;BMP280;49036;42.782;23.108;2024-01-30T06:08:10;94251.69;;;-6.62
62930;BMP280;49036;42.782;23.108;2024-01-30T06:10:36;94291.19;;;-6.49
62930;BMP280;49036;42.782;23.108;2024-01-30T06:13:01;94326.84;;;-6.45
62930;BMP280;49036;42.782;23.108;2024-01-30T06:15:27;94363.44;;;-6.20
62930;BMP280;49036;42.782;23.108;2024-01-30T06:17:55;94391.13;;;-6.11
62930;BMP280;49036;42.782;23.108;2024-01-30T06:20:20;94430.31;;;-5.91
62930;BMP280;49036;42.782;23.108;2024-01-30T06:22:46;94481.38;;;-5.69
62930;BMP280;49036;42.782;23.108;2024-01-30T06:25:11;94551.72;;;-5.40
62930;BMP280;49036;42.782;23.108;2024-01-30T06:27:37;94663.00;;;-5.08
62930;BMP280;49036;42.782;23.108;2024-01-30T06:30:04;94776.59;;;-4.75
62930;BMP280;49036;42.782;23.108;2024-01-30T06:32:29;94843.56;;;-4.52
62930;BMP280;49036;42.782;23.108;2024-01-30T06:35:02;94885.88;;;-4.30
62930;BMP280;49036;42.782;23.108;2024-01-30T06:37:27;94936.50;;;-4.12
62930;BMP280;49036;42.782;23.108;2024-01-30T06:39:53;94979.75;;;-3.31
62930;BMP280;49036;42.782;23.108;2024-01-30T06:42:18;95059.16;;;-1.28
62930;BMP280;49036;42.782;23.108;2024-01-30T06:44:44;95319.81;;;-0.17
62930;BMP280;49036;42.782;23.108;2024-01-30T06:47:10;95502.53;;;-0.73
62930;BMP280;49036;42.782;23.108;2024-01-30T06:49:35;95515.22;;;-1.62
62930;BMP280;49036;42.782;23.108;2024-01-30T06:52:05;95463.50;;;-2.00
62930;BMP280;49036;42.782;23.108;2024-01-30T06:54:30;95411.66;;;-2.21
62930;BMP280;49036;42.782;23.108;2024-01-30T06:56:56;95362.75;;;-2.30
62930;BMP280;49036;42.782;23.108;2024-01-30T06:59:21;95357.50;;;-2.33
62930;BMP280;49036;42.782;23.108;2024-01-30T07:01:47;95287.09;;;-2.31
62930;BMP280;49036;42.782;23.108;2024-01-30T07:04:13;95261.63;;;-2.34
62930;BMP280;49036;42.782;23.108;2024-01-30T07:06:38;95241.38;;;-2.33
62930;BMP280;49036;42.782;23.108;2024-01-30T07:09:04;95324.25;;;-2.28
62930;BMP280;49036;42.782;23.108;2024-01-30T07:11:30;95344.69;;;-2.18
62930;BMP280;49036;42.782;23.108;2024-01-30T07:13:56;95348.00;;;-2.14
62930;BMP280;49036;42.782;23.108;2024-01-30T07:16:21;95345.66;;;-2.06
62930;BMP280;49036;42.782;23.108;2024-01-30T07:18:47;95372.03;;;-1.98
62930;BMP280;49036;42.782;23.108;2024-01-30T07:21:13;95435.00;;;-1.90
62930;BMP280;49036;42.782;23.108;2024-01-30T07:23:38;95481.00;;;-1.77
62930;BMP280;49036;42.782;23.108;2024-01-30T07:26:05;95463.00;;;-1.75
62930;BMP280;49036;42.782;23.108;2024-01-30T07:28:31;95520.09;;;-1.66
62930;BMP280;49036;42.782;23.108;2024-01-30T07:30:57;95521.69;;;-1.59
62930;BMP280;49036;42.782;23.108;2024-01-30T07:33:22;95595.63;;;-1.51
62930;BMP280;49036;42.782;23.108;2024-01-30T07:35:48;95594.53;;;-1.45
62930;BMP280;49036;42.782;23.108;2024-01-30T07:38:14;95615.03;;;-1.35
62930;BMP280;49036;42.782;23.108;2024-01-30T07:40:42;95632.66;;;-1.21
62930;BMP280;49036;42.782;23.108;2024-01-30T07:43:07;95642.94;;;-1.16
62930;BMP280;49036;42.782;23.108;2024-01-30T07:45:33;95673.69;;;-1.01
62930;BMP280;49036;42.782;23.108;2024-01-30T07:47:59;95704.25;;;-0.96
62930;BMP280;49036;42.782;23.108;2024-01-30T07:50:27;95716.63;;;-0.86
62930;BMP280;49036;42.782;23.108;2024-01-30T07:52:52;95732.50;;;-0.85
62930;BMP280;49036;42.782;23.108;2024-01-30T07:55:23;95745.13;;;-0.73
62930;BMP280;49036;42.782;23.108;2024-01-30T07:57:54;95750.03;;;-0.62
62930;BMP280;49036;42.782;23.108;2024-01-30T08:00:21;95746.28;;;-0.50
62930;BMP280;49036;42.782;23.108;2024-01-30T08:02:46;95754.22;;;-0.37
62930;BMP280;49036;42.782;23.108;2024-01-30T08:05:12;95779.13;;;-0.20
62930;BMP280;49036;42.782;23.108;2024-01-30T08:07:37;95782.00;;;-0.24
62930;BMP280;49036;42.782;23.108;2024-01-30T08:10:03;95803.16;;;-0.09
62930;BMP280;49036;42.782;23.108;2024-01-30T08:12:28;95813.34;;;0.05
62930;BMP280;49036;42.782;23.108;2024-01-30T08:14:54;95809.38;;;0.21
62930;BMP280;49036;42.782;23.108;2024-01-30T08:17:19;95814.88;;;0.35
62930;BMP280;49036;42.782;23.108;2024-01-30T08:19:45;95819.47;;;0.44
62930;BMP280;49036;42.782;23.108;2024-01-30T08:22:12;95827.09;;;0.70
62930;BMP280;49036;42.782;23.108;2024-01-30T08:24:37;95838.50;;;0.83
62930;BMP280;49036;42.782;23.108;2024-01-30T08:27:03;95847.41;;;1.13
62930;BMP280;49036;42.782;23.108;2024-01-30T08:29:30;95852.84;;;1.48
62930;BMP280;49036;42.782;23.108;2024-01-30T08:31:55;95855.25;;;1.61
62930;BMP280;49036;42.782;23.108;2024-01-30T08:34:21;95868.94;;;1.61
62930;BMP280;49036;42.782;23.108;2024-01-30T08:36:46;95885.97;;;1.70
62930;BMP280;49036;42.782;23.108;2024-01-30T08:39:12;95878.78;;;1.73
62930;BMP280;49036;42.782;23.108;2024-01-30T08:41:37;95881.31;;;1.76
62930;BMP280;49036;42.782;23.108;2024-01-30T08:44:02;95882.00;;;1.71
62930;BMP280;49036;42.782;23.108;2024-01-30T08:46:29;95886.72;;;1.71
62930;BMP280;49036;42.782;23.108;2024-01-30T08:48:55;95888.97;;;1.72
62930;BMP280;49036;42.782;23.108;2024-01-30T08:51:21;95891.88;;;1.84
62930;BMP280;49036;42.782;23.108;2024-01-30T08:53:47;95894.59;;;2.04
62930;BMP280;49036;42.782;23.108;2024-01-30T08:56:12;95892.25;;;2.17
62930;BMP280;49036;42.782;23.108;2024-01-30T08:58:38;95890.28;;;2.18
62930;BMP280;49036;42.782;23.108;2024-01-30T09:01:04;95899.66;;;2.11
62930;BMP280;49036;42.782;23.108;2024-01-30T09:03:30;95898.16;;;2.10
62930;BMP280;49036;42.782;23.108;2024-01-30T09:05:56;95893.63;;;2.07
62930;BMP280;49036;42.782;23.108;2024-01-30T09:08:21;95899.59;;;2.05
62930;BMP280;49036;42.782;23.108;2024-01-30T09:10:46;95891.72;;;1.93
62930;BMP280;49036;42.782;23.108;2024-01-30T09:13:12;95897.03;;;2.02
62930;BMP280;49036;42.782;23.108;2024-01-30T09:15:37;95900.59;;;2.08
62930;BMP280;49036;42.782;23.108;2024-01-30T09:18:03;95900.78;;;2.25
62930;BMP280;49036;42.782;23.108;2024-01-30T09:20:28;95893.38;;;2.31
62930;BMP280;49036;42.782;23.108;2024-01-30T09:22:54;95899.06;;;2.53
62930;BMP280;49036;42.782;23.108;2024-01-30T09:25:19;95888.31;;;2.76
62930;BMP280;49036;42.782;23.108;2024-01-30T09:27:45;95895.22;;;2.66
62930;BMP280;49036;42.782;23.108;2024-01-30T09:30:10;95889.53;;;2.69
62930;BMP280;49036;42.782;23.108;2024-01-30T09:32:36;95886.34;;;2.76
62930;BMP280;49036;42.782;23.108;2024-01-30T09:35:01;95878.31;;;2.67
62930;BMP280;49036;42.782;23.108;2024-01-30T09:37:27;95885.66;;;2.55
62930;BMP280;49036;42.782;23.108;2024-01-30T09:39:53;95886.94;;;2.60
62930;BMP280;49036;42.782;23.108;2024-01-30T09:44:57;95896.03;;;2.46
62930;BMP280;49036;42.782;23.108;2024-01-30T09:47:22;95879.44;;;2.55
62930;BMP280;49036;42.782;23.108;2024-01-30T09:49:48;95885.19;;;2.88
62930;BMP280;49036;42.782;23.108;2024-01-30T09:52:14;95877.13;;;2.74
62930;BMP280;49036;42.782;23.108;2024-01-30T09:54:41;95876.13;;;2.77
62930;BMP280;49036;42.782;23.108;2024-01-30T09:57:07;95866.50;;;2.87
62930;BMP280;49036;42.782;23.108;2024-01-30T09:59:33;95874.72;;;2.87
62930;BMP280;49036;42.782;23.108;2024-01-30T10:01:58;95871.13;;;2.75
62930;BMP280;49036;42.782;23.108;2024-01-30T10:04:23;95873.56;;;2.68
62930;BMP280;49036;42.782;23.108;2024-01-30T10:06:49;95873.19;;;2.86
62930;BMP280;49036;42.782;23.108;2024-01-30T10:09:15;95865.34;;;2.99
62930;BMP280;49036;42.782;23.108;2024-01-30T10:11:41;95870.13;;;3.10
62930;BMP280;49036;42.782;23.108;2024-01-30T10:14:06;95855.66;;;3.09
62930;BMP280;49036;42.782;23.108;2024-01-30T10:16:34;95864.59;;;3.04
62930;BMP280;49036;42.782;23.108;2024-01-30T10:18:59;95861.88;;;2.67
62930;BMP280;49036;42.782;23.108;2024-01-30T10:21:25;95866.34;;;2.70
62930;BMP280;49036;42.782;23.108;2024-01-30T10:23:50;95859.16;;;2.47
62930;BMP280;49036;42.782;23.108;2024-01-30T10:26:16;95855.28;;;2.59
62930;BMP280;49036;42.782;23.108;2024-01-30T10:28:42;95864.38;;;2.45
62930;BMP280;49036;42.782;23.108;2024-01-30T10:31:08;95864.88;;;2.43
62930;BMP280;49036;42.782;23.108;2024-01-30T10:33:34;95856.25;;;2.56
62930;BMP280;49036;42.782;23.108;2024-01-30T10:36:04;95847.75;;;2.54
62930;BMP280;49036;42.782;23.108;2024-01-30T10:38:30;95858.94;;;2.50
62930;BMP280;49036;42.782;23.108;2024-01-30T10:41:02;95854.47;;;2.53
62930;BMP280;49036;42.782;23.108;2024-01-30T10:43:32;95853.41;;;2.71
62930;BMP280;49036;42.782;23.108;2024-01-30T10:46:20;95851.66;;;2.73
62930;BMP280;49036;42.782;23.108;2024-01-30T10:48:57;95852.81;;;2.93
62930;BMP280;49036;42.782;23.108;2024-01-30T10:51:25;95839.28;;;3.21
62930;BMP280;49036;42.782;23.108;2024-01-30T10:53:52;95834.03;;;3.23
62930;BMP280;49036;42.782;23.108;2024-01-30T10:56:20;95830.88;;;3.35
62930;BMP280;49036;42.782;23.108;2024-01-30T10:58:47;95832.38;;;3.36
62930;BMP280;49036;42.782;23.108;2024-01-30T11:01:13;95831.09;;;3.26
62930;BMP280;49036;42.782;23.108;2024-01-30T11:03:39;95818.16;;;3.32
62930;BMP280;49036;42.782;23.108;2024-01-30T11:06:04;95823.50;;;3.58
62930;BMP280;49036;42.782;23.108;2024-01-30T11:08:32;95823.78;;;3.66
62930;BMP280;49036;42.782;23.108;2024-01-30T11:10:58;95820.00;;;3.63
62930;BMP280;49036;42.782;23.108;2024-01-30T11:13:27;95813.59;;;3.89
62930;BMP280;49036;42.782;23.108;2024-01-30T11:15:54;95806.16;;;4.12
62930;BMP280;49036;42.782;23.108;2024-01-30T11:18:26;95823.69;;;4.59
62930;BMP280;49036;42.782;23.108;2024-01-30T11:20:56;95807.91;;;4.87
62930;BMP280;49036;42.782;23.108;2024-01-30T11:23:22;95805.84;;;5.10
62930;BMP280;49036;42.782;23.108;2024-01-30T11:25:48;95806.84;;;5.07
62930;BMP280;49036;42.782;23.108;2024-01-30T11:28:14;95806.34;;;5.14
62930;BMP280;49036;42.782;23.108;2024-01-30T11:30:44;95807.59;;;5.19
62930;BMP280;49036;42.782;23.108;2024-01-30T11:33:14;95804.59;;;5.17
62930;BMP280;49036;42.782;23.108;2024-01-30T11:35:43;95814.41;;;5.01
62930;BMP280;49036;42.782;23.108;2024-01-30T11:38:10;95807.41;;;4.83
62930;BMP280;49036;42.782;23.108;2024-01-30T11:40:37;95812.91;;;4.95
62930;BMP280;49036;42.782;23.108;2024-01-30T11:43:05;95803.38;;;5.01
62930;BMP280;49036;42.782;23.108;2024-01-30T11:45:31;95799.06;;;5.22
62930;BMP280;49036;42.782;23.108;2024-01-30T11:47:57;95794.25;;;5.45
62930;BMP280;49036;42.782;23.108;2024-01-30T11:50:23;95802.81;;;5.19
62930;BMP280;49036;42.782;23.108;2024-01-30T11:52:50;95792.28;;;5.29
62930;BMP280;49036;42.782;23.108;2024-01-30T11:55:15;95786.63;;;4.99
62930;BMP280;49036;42.782;23.108;2024-01-30T11:57:41;95791.19;;;5.49
62930;BMP280;49036;42.782;23.108;2024-01-30T12:00:14;95792.44;;;5.48
62930;BMP280;49036;42.782;23.108;2024-01-30T12:02:40;95787.66;;;5.54
62930;BMP280;49036;42.782;23.108;2024-01-30T12:05:07;95780.97;;;5.91
62930;BMP280;49036;42.782;23.108;2024-01-30T12:07:33;95780.13;;;5.60
62930;BMP280;49036;42.782;23.108;2024-01-30T12:09:59;95770.13;;;5.98
62930;BMP280;49036;42.782;23.108;2024-01-30T12:12:26;95768.59;;;6.08
62930;BMP280;49036;42.782;23.108;2024-01-30T12:14:51;95766.53;;;6.45
62930;BMP280;49036;42.782;23.108;2024-01-30T12:17:31;95771.19;;;6.25
62930;BMP280;49036;42.782;23.108;2024-01-30T12:20:10;95766.97;;;6.97
62930;BMP280;49036;42.782;23.108;2024-01-30T12:22:46;95771.31;;;7.74
62930;BMP280;49036;42.782;23.108;2024-01-30T12:25:14;95768.25;;;7.40
62930;BMP280;49036;42.782;23.108;2024-01-30T12:27:44;95766.84;;;7.71
62930;BMP280;49036;42.782;23.108;2024-01-30T12:30:13;95767.91;;;8.00
62930;BMP280;49036;42.782;23.108;2024-01-30T12:32:41;95757.19;;;7.77
62930;BMP280;49036;42.782;23.108;2024-01-30T12:35:11;95758.38;;;8.86
62930;BMP280;49036;42.782;23.108;2024-01-30T12:37:37;95754.84;;;8.98
62930;BMP280;49036;42.782;23.108;2024-01-30T12:40:03;95757.28;;;8.49
62930;BMP280;49036;42.782;23.108;2024-01-30T12:42:29;95758.91;;;8.84
62930;BMP280;49036;42.782;23.108;2024-01-30T12:44:57;95756.13;;;9.58
62930;BMP280;49036;42.782;23.108;2024-01-30T12:47:22;95751.50;;;10.15
62930;BMP280;49036;42.782;23.108;2024-01-30T12:49:48;95755.88;;;10.31
62930;BMP280;49036;42.782;23.108;2024-01-30T12:52:16;95749.00;;;10.25
62930;BMP280;49036;42.782;23.108;2024-01-30T12:54:41;95750.13;;;10.29
62930;BMP280;49036;42.782;23.108;2024-01-30T12:57:07;95753.41;;;9.99
62930;BMP280;49036;42.782;23.108;2024-01-30T12:59:32;95749.28;;;9.25
62930;BMP280;49036;42.782;23.108;2024-01-30T13:02:00;95745.78;;;9.58
62930;BMP280;49036;42.782;23.108;2024-01-30T13:04:26;95748.13;;;10.58
62930;BMP280;49036;42.782;23.108;2024-01-30T13:06:52;95747.38;;;10.58
62930;BMP280;49036;42.782;23.108;2024-01-30T13:09:18;95745.66;;;10.47
62930;BMP280;49036;42.782;23.108;2024-01-30T13:11:43;95738.31;;;11.22
62930;BMP280;49036;42.782;23.108;2024-01-30T13:14:08;95738.53;;;11.47
62930;BMP280;49036;42.782;23.108;2024-01-30T13:16:34;95734.72;;;11.14
62930;BMP280;49036;42.782;23.108;2024-01-30T13:18:59;95746.94;;;11.70
62930;BMP280;49036;42.782;23.108;2024-01-30T13:21:27;95739.09;;;11.01
62930;BMP280;49036;42.782;23.108;2024-01-30T13:23:52;95735.06;;;11.10
62930;BMP280;49036;42.782;23.108;2024-01-30T13:26:22;95735.28;;;10.76
62930;BMP280;49036;42.782;23.108;2024-01-30T13:28:47;95733.41;;;10.71
62930;BMP280;49036;42.782;23.108;2024-01-30T13:31:14;95741.56;;;10.77
62930;BMP280;49036;42.782;23.108;2024-01-30T13:33:40;95728.81;;;11.17
62930;BMP280;49036;42.782;23.108;2024-01-30T13:36:07;95731.94;;;12.11
62930;BMP280;49036;42.782;23.108;2024-01-30T13:38:32;95720.81;;;11.80
62930;BMP280;49036;42.782;23.108;2024-01-30T13:40:59;95738.06;;;12.02
62930;BMP280;49036;42.782;23.108;2024-01-30T13:43:24;95736.38;;;12.29
62930;BMP280;49036;42.782;23.108;2024-01-30T13:45:49;95732.84;;;12.51
62930;BMP280;49036;42.782;23.108;2024-01-30T13:48:15;95730.25;;;13.01
62930;BMP280;49036;42.782;23.108;2024-01-30T13:50:40;95736.22;;;13.70
62930;BMP280;49036;42.782;23.108;2024-01-30T13:53:06;95731.41;;;12.98
62930;BMP280;49036;42.782;23.108;2024-01-30T13:55:31;95731.06;;;12.94
62930;BMP280;49036;42.782;23.108;2024-01-30T13:57:57;95731.81;;;13.27